FFT1469 KLAS-KSAN
Flight info
| Callsign | FFT1469 |
|---|---|
| Flight time | N/A |
| Altitude | 30000 |
| Route | RADYR2 LVELL LUCKI1 |
| Aircraft | A321/M-SDE3FGHIRWY/LB1 |
Departure
| Time | N/A |
|---|---|
| Airport | Harry Reid International Airport (KLAS) |
Arrival
| Time | 2026-05-05 23:54 |
|---|---|
| Airport | San Diego International Airport (KSAN) |
| Time | Latitude | Longitude | Altitude | Speed | Heading |
|---|---|---|---|---|---|
| 2026-05-05 23:17 | 35.25284 | -115.36270 | 21901 ft | 400 kts | 175° |
| 2026-05-05 23:18 | 35.22476 | -115.36074 | 21901 ft | 400 kts | 175° |
| 2026-05-05 23:18 | 35.19696 | -115.35879 | 21895 ft | 400 kts | 175° |
| 2026-05-05 23:18 | 35.16917 | -115.35681 | 21899 ft | 400 kts | 175° |
| 2026-05-05 23:18 | 35.14172 | -115.35486 | 21897 ft | 401 kts | 175° |
| 2026-05-05 23:19 | 35.11382 | -115.35289 | 21889 ft | 401 kts | 175° |
| 2026-05-05 23:19 | 35.08595 | -115.35092 | 21888 ft | 402 kts | 175° |
| 2026-05-05 23:19 | 35.05808 | -115.34894 | 21889 ft | 401 kts | 174° |
| 2026-05-05 23:19 | 35.03017 | -115.34699 | 21877 ft | 401 kts | 175° |
| 2026-05-05 23:20 | 35.00230 | -115.34507 | 21877 ft | 401 kts | 174° |
| 2026-05-05 23:20 | 34.97446 | -115.34315 | 21874 ft | 401 kts | 175° |
| 2026-05-05 23:20 | 34.94658 | -115.34123 | 21871 ft | 401 kts | 176° |
| 2026-05-05 23:20 | 34.91878 | -115.33932 | 21872 ft | 400 kts | 175° |
| 2026-05-05 23:21 | 34.89098 | -115.33740 | 21875 ft | 400 kts | 175° |
| 2026-05-05 23:21 | 34.86319 | -115.33549 | 21873 ft | 400 kts | 175° |
| 2026-05-05 23:21 | 34.83540 | -115.33356 | 21871 ft | 399 kts | 175° |
| 2026-05-05 23:21 | 34.80783 | -115.33191 | 21865 ft | 400 kts | 178° |
| 2026-05-05 23:22 | 34.77992 | -115.33461 | 21868 ft | 401 kts | 189° |
| 2026-05-05 23:22 | 34.75290 | -115.34311 | 21863 ft | 402 kts | 199° |
| 2026-05-05 23:22 | 34.72663 | -115.35466 | 21863 ft | 402 kts | 199° |
| 2026-05-05 23:22 | 34.70026 | -115.36625 | 21869 ft | 402 kts | 200° |
| 2026-05-05 23:23 | 34.67400 | -115.37778 | 21873 ft | 401 kts | 199° |
| 2026-05-05 23:23 | 34.64767 | -115.38930 | 21874 ft | 401 kts | 199° |
| 2026-05-05 23:23 | 34.62180 | -115.40061 | 21873 ft | 401 kts | 199° |
| 2026-05-05 23:23 | 34.59521 | -115.41221 | 21876 ft | 400 kts | 199° |
| 2026-05-05 23:24 | 34.56934 | -115.42350 | 21875 ft | 400 kts | 199° |
| 2026-05-05 23:24 | 34.54319 | -115.43491 | 21871 ft | 400 kts | 199° |
| 2026-05-05 23:24 | 34.51704 | -115.44633 | 21871 ft | 399 kts | 199° |
| 2026-05-05 23:24 | 34.49091 | -115.45774 | 21865 ft | 399 kts | 199° |
| 2026-05-05 23:25 | 34.46448 | -115.46927 | 21862 ft | 399 kts | 199° |
| 2026-05-05 23:25 | 34.43834 | -115.48066 | 21867 ft | 399 kts | 200° |
| 2026-05-05 23:25 | 34.41226 | -115.49202 | 21877 ft | 398 kts | 200° |
| 2026-05-05 23:25 | 34.38620 | -115.50336 | 21879 ft | 397 kts | 200° |
| 2026-05-05 23:26 | 34.36021 | -115.51465 | 21881 ft | 397 kts | 200° |
| 2026-05-05 23:26 | 34.33429 | -115.52611 | 21885 ft | 396 kts | 203° |
| 2026-05-05 23:26 | 34.31006 | -115.54103 | 21882 ft | 396 kts | 212° |
| 2026-05-05 23:26 | 34.28662 | -115.55839 | 21884 ft | 395 kts | 212° |
| 2026-05-05 23:27 | 34.26315 | -115.57577 | 21879 ft | 395 kts | 212° |
| 2026-05-05 23:27 | 34.23972 | -115.59311 | 21882 ft | 395 kts | 212° |
| 2026-05-05 23:27 | 34.21625 | -115.61025 | 21878 ft | 395 kts | 209° |
| 2026-05-05 23:27 | 34.19124 | -115.62393 | 21875 ft | 395 kts | 201° |
| 2026-05-05 23:28 | 34.16562 | -115.63591 | 21881 ft | 394 kts | 201° |
| 2026-05-05 23:28 | 34.14007 | -115.64790 | 21892 ft | 393 kts | 202° |
| 2026-05-05 23:28 | 34.11459 | -115.65991 | 21899 ft | 393 kts | 202° |
| 2026-05-05 23:28 | 34.08907 | -115.67197 | 21895 ft | 393 kts | 202° |
| 2026-05-05 23:29 | 34.06363 | -115.68401 | 21893 ft | 393 kts | 202° |
| 2026-05-05 23:29 | 34.03819 | -115.69603 | 21890 ft | 393 kts | 202° |
| 2026-05-05 23:29 | 34.01270 | -115.70806 | 21891 ft | 393 kts | 202° |
| 2026-05-05 23:29 | 33.98725 | -115.72008 | 21891 ft | 393 kts | 202° |
| 2026-05-05 23:30 | 33.96180 | -115.73207 | 21887 ft | 393 kts | 202° |
| 2026-05-05 23:30 | 33.93638 | -115.74403 | 21888 ft | 393 kts | 202° |
| 2026-05-05 23:30 | 33.91093 | -115.75603 | 21888 ft | 393 kts | 202° |
| 2026-05-05 23:30 | 33.88591 | -115.76811 | 21905 ft | 392 kts | 204° |
| 2026-05-05 23:31 | 33.86071 | -115.78049 | 21909 ft | 391 kts | 203° |
| 2026-05-05 23:31 | 33.83556 | -115.79294 | 21908 ft | 391 kts | 204° |
| 2026-05-05 23:31 | 33.81040 | -115.80539 | 21909 ft | 390 kts | 204° |
| 2026-05-05 23:31 | 33.78533 | -115.81777 | 21908 ft | 390 kts | 203° |
| 2026-05-05 23:32 | 33.76016 | -115.83011 | 21906 ft | 390 kts | 204° |
| 2026-05-05 23:32 | 33.73494 | -115.84216 | 21903 ft | 390 kts | 202° |
| 2026-05-05 23:32 | 33.70967 | -115.85396 | 21901 ft | 390 kts | 202° |
| 2026-05-05 23:32 | 33.68436 | -115.86565 | 21897 ft | 390 kts | 202° |
| 2026-05-05 23:33 | 33.65905 | -115.87732 | 21895 ft | 389 kts | 203° |
| 2026-05-05 23:33 | 33.63379 | -115.88903 | 21895 ft | 389 kts | 202° |
| 2026-05-05 23:33 | 33.60861 | -115.90074 | 21900 ft | 388 kts | 203° |
| 2026-05-05 23:33 | 33.58338 | -115.91251 | 21908 ft | 388 kts | 204° |
| 2026-05-05 23:34 | 33.55829 | -115.92422 | 21912 ft | 387 kts | 202° |
| 2026-05-05 23:34 | 33.53401 | -115.93799 | 21907 ft | 385 kts | 213° |
| 2026-05-05 23:34 | 33.51255 | -115.95687 | 21903 ft | 382 kts | 225° |
| 2026-05-05 23:34 | 33.49457 | -115.98010 | 21900 ft | 379 kts | 234° |
| 2026-05-05 23:35 | 33.47945 | -116.00595 | 21903 ft | 378 kts | 237° |
| 2026-05-05 23:35 | 33.46448 | -116.03188 | 21906 ft | 379 kts | 238° |
| 2026-05-05 23:35 | 33.44946 | -116.05776 | 21906 ft | 379 kts | 237° |
| 2026-05-05 23:35 | 33.43443 | -116.08365 | 21904 ft | 379 kts | 236° |
| 2026-05-05 23:36 | 33.41934 | -116.10956 | 21902 ft | 379 kts | 237° |
| 2026-05-05 23:36 | 33.40428 | -116.13541 | 21903 ft | 379 kts | 237° |
| 2026-05-05 23:36 | 33.38918 | -116.16133 | 21909 ft | 379 kts | 237° |
| 2026-05-05 23:36 | 33.37409 | -116.18719 | 21907 ft | 382 kts | 236° |
| 2026-05-05 23:37 | 33.35877 | -116.21347 | 21194 ft | 382 kts | 238° |
| 2026-05-05 23:37 | 33.34250 | -116.23767 | 20741 ft | 365 kts | 226° |
| 2026-05-05 23:37 | 33.32334 | -116.25670 | 20311 ft | 351 kts | 216° |
| 2026-05-05 23:37 | 33.30265 | -116.27034 | 19900 ft | 338 kts | 210° |
| 2026-05-05 23:38 | 33.28192 | -116.28238 | 19490 ft | 330 kts | 210° |
| 2026-05-05 23:38 | 33.26135 | -116.29442 | 19071 ft | 329 kts | 211° |
| 2026-05-05 23:38 | 33.24088 | -116.30647 | 18663 ft | 327 kts | 211° |
| 2026-05-05 23:38 | 33.22046 | -116.31853 | 18252 ft | 326 kts | 208° |
| 2026-05-05 23:39 | 33.20011 | -116.33050 | 17740 ft | 326 kts | 211° |
| 2026-05-05 23:39 | 33.17981 | -116.34237 | 17325 ft | 323 kts | 210° |
| 2026-05-05 23:39 | 33.15973 | -116.35408 | 16931 ft | 321 kts | 210° |
| 2026-05-05 23:39 | 33.13973 | -116.36577 | 16545 ft | 318 kts | 212° |
| 2026-05-05 23:40 | 33.11996 | -116.37734 | 16164 ft | 315 kts | 208° |
| 2026-05-05 23:40 | 33.10028 | -116.38884 | 15805 ft | 314 kts | 208° |
| 2026-05-05 23:40 | 33.08071 | -116.40028 | 15421 ft | 312 kts | 210° |
| 2026-05-05 23:40 | 33.06130 | -116.41163 | 15043 ft | 311 kts | 211° |
| 2026-05-05 23:41 | 33.04192 | -116.42294 | 14655 ft | 309 kts | 211° |
| 2026-05-05 23:41 | 33.02291 | -116.43402 | 14282 ft | 307 kts | 210° |
| 2026-05-05 23:41 | 33.00410 | -116.44640 | 13893 ft | 304 kts | 219° |
| 2026-05-05 23:41 | 32.98762 | -116.46207 | 13411 ft | 313 kts | 224° |
| 2026-05-05 23:42 | 32.97083 | -116.47915 | 12915 ft | 319 kts | 223° |
| 2026-05-05 23:42 | 32.95373 | -116.49647 | 12416 ft | 319 kts | 223° |
| 2026-05-05 23:42 | 32.93705 | -116.51332 | 11951 ft | 319 kts | 225° |
| 2026-05-05 23:42 | 32.91990 | -116.53061 | 11456 ft | 319 kts | 223° |
| 2026-05-05 23:43 | 32.90298 | -116.54766 | 11015 ft | 318 kts | 222° |
| 2026-05-05 23:43 | 32.88630 | -116.56444 | 10573 ft | 317 kts | 222° |
| 2026-05-05 23:43 | 32.86957 | -116.58127 | 10339 ft | 309 kts | 223° |
| 2026-05-05 23:43 | 32.85367 | -116.59724 | 10019 ft | 291 kts | 223° |
| 2026-05-05 23:44 | 32.83836 | -116.61257 | 9471 ft | 284 kts | 223° |
| 2026-05-05 23:44 | 32.82337 | -116.62761 | 9348 ft | 281 kts | 223° |
| 2026-05-05 23:44 | 32.80844 | -116.64266 | 9202 ft | 282 kts | 224° |
| 2026-05-05 23:44 | 32.79358 | -116.65767 | 8895 ft | 279 kts | 222° |
| 2026-05-05 23:45 | 32.77913 | -116.67277 | 8549 ft | 275 kts | 229° |
| 2026-05-05 23:45 | 32.76769 | -116.69081 | 8207 ft | 270 kts | 244° |
| 2026-05-05 23:45 | 32.75864 | -116.71030 | 7864 ft | 267 kts | 242° |
| 2026-05-05 23:45 | 32.74962 | -116.72949 | 7540 ft | 265 kts | 242° |
| 2026-05-05 23:46 | 32.74065 | -116.74843 | 7208 ft | 261 kts | 243° |
| 2026-05-05 23:46 | 32.73175 | -116.76710 | 6888 ft | 258 kts | 242° |
| 2026-05-05 23:46 | 32.72305 | -116.78534 | 6562 ft | 256 kts | 242° |
| 2026-05-05 23:46 | 32.71422 | -116.80386 | 6224 ft | 255 kts | 241° |
| 2026-05-05 23:47 | 32.70606 | -116.82247 | 5900 ft | 252 kts | 250° |
| 2026-05-05 23:47 | 32.70008 | -116.84188 | 5617 ft | 249 kts | 251° |
| 2026-05-05 23:47 | 32.69414 | -116.86096 | 5326 ft | 243 kts | 251° |
| 2026-05-05 23:47 | 32.68846 | -116.87908 | 5083 ft | 227 kts | 251° |
| 2026-05-05 23:48 | 32.68318 | -116.89633 | 4814 ft | 220 kts | 251° |
| 2026-05-05 23:48 | 32.67818 | -116.91321 | 4547 ft | 215 kts | 252° |
| 2026-05-05 23:48 | 32.67393 | -116.93002 | 4288 ft | 211 kts | 262° |
| 2026-05-05 23:48 | 32.67440 | -116.94714 | 4062 ft | 204 kts | 282° |
| 2026-05-05 23:49 | 32.67825 | -116.96266 | 3818 ft | 189 kts | 287° |
| 2026-05-05 23:49 | 32.68185 | -116.97722 | 3598 ft | 181 kts | 286° |
| 2026-05-05 23:49 | 32.68534 | -116.99149 | 3399 ft | 179 kts | 285° |
| 2026-05-05 23:49 | 32.68878 | -117.00558 | 3189 ft | 177 kts | 286° |
| 2026-05-05 23:50 | 32.69218 | -117.01960 | 2981 ft | 174 kts | 285° |
| 2026-05-05 23:50 | 32.69558 | -117.03347 | 2783 ft | 175 kts | 284° |
| 2026-05-05 23:50 | 32.69890 | -117.04705 | 2568 ft | 171 kts | 285° |
| 2026-05-05 23:50 | 32.70216 | -117.06040 | 2364 ft | 159 kts | 286° |
| 2026-05-05 23:51 | 32.70506 | -117.07233 | 2155 ft | 145 kts | 285° |
| 2026-05-05 23:51 | 32.70778 | -117.08357 | 2039 ft | 140 kts | 284° |
| 2026-05-05 23:51 | 32.71048 | -117.09460 | 1987 ft | 139 kts | 285° |
| 2026-05-05 23:51 | 32.71318 | -117.10577 | 1788 ft | 140 kts | 285° |
| 2026-05-05 23:52 | 32.71591 | -117.11678 | 1487 ft | 138 kts | 285° |
| 2026-05-05 23:52 | 32.71855 | -117.12767 | 1268 ft | 137 kts | 285° |
| 2026-05-05 23:52 | 32.72118 | -117.13853 | 1011 ft | 139 kts | 283° |
| 2026-05-05 23:52 | 32.72383 | -117.14960 | 744 ft | 142 kts | 284° |
| 2026-05-05 23:53 | 32.72661 | -117.16085 | 485 ft | 143 kts | 284° |
| 2026-05-05 23:53 | 32.72936 | -117.17217 | 214 ft | 137 kts | 282° |
| 2026-05-05 23:53 | 32.73187 | -117.18268 | 42 ft | 129 kts | 282° |
| 2026-05-05 23:53 | 32.73401 | -117.19165 | 22 ft | 87 kts | 286° |
| 2026-05-05 23:54 | 32.73519 | -117.19662 | 27 ft | 39 kts | 285° |
| 2026-05-05 23:54 | 32.73503 | -117.19835 | 24 ft | 15 kts | 213° |
| 2026-05-05 23:54 | 32.73478 | -117.19839 | 24 ft | 1 kts | 171° |
| 2026-05-05 23:54 | 32.73456 | -117.19806 | 23 ft | 11 kts | 113° |
| 2026-05-05 23:55 | 32.73419 | -117.19654 | 23 ft | 24 kts | 105° |
| 2026-05-05 23:55 | 32.73351 | -117.19541 | 23 ft | 12 kts | 178° |
| 2026-05-05 23:55 | 32.73324 | -117.19558 | 24 ft | 2 kts | 227° |
| 2026-05-05 23:55 | 32.73314 | -117.19570 | 23 ft | 0 kts | 226° |